Time;durP1;ratioP1;P1;durP2;ratioP2;P2;SDS_P1;SDS_P2;PMS_P1;PMS_P2;Temp;Humidity;BMP_temperature;BMP_pressure;BME280_temperature;BME280_humidity;BME280_pressure;Samples;Min_cycle;Max_cycle;Signal;HPM_P1;HPM_P2
2021/12/24 00:00:52;;;;;;;25.55;18.50;;;;;;;;;;5111172;28;20048;-64
2021/12/24 00:03:20;;;;;;;23.95;17.98;;;;;;;;;;5115621;28;20051;-64
2021/12/24 00:05:46;;;;;;;21.65;16.85;;;;;;;;;;5114300;28;20494;-64
2021/12/24 00:08:13;;;;;;;23.52;17.50;;;;;;;;;;5115363;28;20539;-64
2021/12/24 00:10:40;;;;;;;24.42;16.92;;;;;;;;;;5115646;28;20052;-64
2021/12/24 00:13:11;;;;;;;22.23;17.00;;;;;;;;;;5114524;28;20054;-64
2021/12/24 00:16:05;;;;;;;24.13;17.63;;;;;;;;;;5115376;28;20145;-64
2021/12/24 00:18:39;;;;;;;20.48;16.08;;;;;;;;;;5114532;28;20052;-64
2021/12/24 00:37:22;;;;;;;22.85;16.95;;;;;;;;;;5094804;28;20108;-63
2021/12/24 00:39:55;;;;;;;21.60;17.00;;;;;;;;;;5093510;28;20052;-64
2021/12/24 00:42:22;;;;;;;21.45;15.32;;;;;;;;;;5094482;28;20048;-64
2021/12/24 00:44:49;;;;;;;22.77;16.63;;;;;;;;;;5094124;28;20101;-64
2021/12/24 00:47:15;;;;;;;20.90;15.75;;;;;;;;;;5093712;28;20101;-64
2021/12/24 00:49:43;;;;;;;18.40;13.85;;;;;;;;;;5094132;28;20044;-64
2021/12/24 00:52:21;;;;;;;19.80;14.82;;;;;;;;;;5094351;28;20051;-64
2021/12/24 00:55:02;;;;;;;21.02;14.75;;;;;;;;;;5092988;28;20052;-64
2021/12/24 00:57:31;;;;;;;19.45;14.63;;;;;;;;;;5094257;28;20048;-64
2021/12/24 00:59:57;;;;;;;19.27;14.23;;;;;;;;;;5108042;28;20502;-64
2021/12/24 01:02:23;;;;;;;18.75;13.65;;;;;;;;;;5113810;28;20052;-64
2021/12/24 01:04:49;;;;;;;18.40;13.38;;;;;;;;;;5113858;28;20093;-64
2021/12/24 01:07:16;;;;;;;17.02;13.45;;;;;;;;;;5114475;28;20040;-64
2021/12/24 01:09:43;;;;;;;17.05;13.10;;;;;;;;;;5113689;28;20089;-65
2021/12/24 01:12:10;;;;;;;16.73;12.82;;;;;;;;;;5113907;27;20057;-64
2021/12/24 01:14:37;;;;;;;18.92;13.32;;;;;;;;;;5114362;28;20051;-65
2021/12/24 01:17:12;;;;;;;17.08;13.70;;;;;;;;;;5113151;28;20048;-65
2021/12/24 01:19:41;;;;;;;18.02;13.25;;;;;;;;;;5114268;28;20044;-65
2021/12/24 01:22:43;;;;;;;18.23;14.18;;;;;;;;;;5113154;28;20158;-65
2021/12/24 01:25:07;;;;;;;16.35;12.77;;;;;;;;;;5113709;28;20051;-64
2021/12/24 01:27:55;;;;;;;16.50;13.73;;;;;;;;;;5114082;28;20055;-64
2021/12/24 01:38:48;;;;;;;15.52;12.35;;;;;;;;;;5113885;28;20046;-64
2021/12/24 01:42:39;;;;;;;14.88;12.27;;;;;;;;;;5113863;28;20074;-64
2021/12/24 01:43:59;;;;;;;14.82;12.35;;;;;;;;;;5112712;28;20044;-65
2021/12/24 01:46:27;;;;;;;14.10;11.90;;;;;;;;;;5113471;28;20371;-64
2021/12/24 01:48:53;;;;;;;15.13;12.52;;;;;;;;;;5113384;28;20040;-65
2021/12/24 01:51:19;;;;;;;14.30;11.88;;;;;;;;;;5112831;28;20077;-64
2021/12/24 01:53:46;;;;;;;17.35;12.77;;;;;;;;;;5113318;28;20112;-64
2021/12/24 01:56:12;;;;;;;13.63;11.77;;;;;;;;;;5113357;28;20538;-65
2021/12/24 01:58:38;;;;;;;13.68;12.07;;;;;;;;;;5112823;28;20039;-64
2021/12/24 02:01:04;;;;;;;12.93;11.52;;;;;;;;;;5112989;27;20039;-64
2021/12/24 02:03:32;;;;;;;15.43;12.40;;;;;;;;;;5113145;28;20039;-64
2021/12/24 02:05:58;;;;;;;15.27;13.07;;;;;;;;;;5111937;28;20055;-64
2021/12/24 02:08:24;;;;;;;13.48;12.05;;;;;;;;;;5113227;28;20048;-64
2021/12/24 02:10:51;;;;;;;13.02;11.65;;;;;;;;;;5112918;28;20184;-64
2021/12/24 02:13:17;;;;;;;14.45;12.32;;;;;;;;;;5112106;28;20453;-65
2021/12/24 02:15:59;;;;;;;15.57;11.88;;;;;;;;;;5112652;28;20047;-64
2021/12/24 02:29:28;;;;;;;15.50;13.85;;;;;;;;;;5112841;28;20074;-64
2021/12/24 02:31:54;;;;;;;14.98;13.25;;;;;;;;;;5112365;28;20051;-64
2021/12/24 02:34:21;;;;;;;18.48;14.18;;;;;;;;;;5111971;28;20047;-64
2021/12/24 02:36:48;;;;;;;16.92;13.98;;;;;;;;;;5112346;27;20409;-64
2021/12/24 02:39:14;;;;;;;17.45;13.93;;;;;;;;;;5111835;28;20096;-64
2021/12/24 02:41:41;;;;;;;16.90;14.18;;;;;;;;;;5112741;28;20397;-64
2021/12/24 02:44:07;;;;;;;17.88;14.40;;;;;;;;;;5112446;28;20043;-64
2021/12/24 02:46:40;;;;;;;18.77;15.30;;;;;;;;;;5111814;28;20097;-64
2021/12/24 02:49:12;;;;;;;18.38;14.95;;;;;;;;;;5112172;27;20044;-64
2021/12/24 02:54:24;;;;;;;23.13;16.40;;;;;;;;;;5111504;28;20116;-64
2021/12/24 02:56:52;;;;;;;19.67;15.63;;;;;;;;;;5112073;28;20116;-65
2021/12/24 02:59:25;;;;;;;20.27;15.40;;;;;;;;;;5112188;28;20039;-64
2021/12/24 03:01:51;;;;;;;23.75;17.23;;;;;;;;;;5111180;28;20036;-64
2021/12/24 03:04:17;;;;;;;18.15;15.45;;;;;;;;;;5112248;28;20055;-64
2021/12/24 03:06:45;;;;;;;23.05;16.30;;;;;;;;;;5111588;28;20047;-64
2021/12/24 03:09:13;;;;;;;21.92;15.95;;;;;;;;;;5111243;28;20089;-64
2021/12/24 03:11:41;;;;;;;22.20;15.95;;;;;;;;;;5112215;28;20047;-64
2021/12/24 03:14:08;;;;;;;23.90;16.60;;;;;;;;;;5111796;28;20040;-64
2021/12/24 03:16:36;;;;;;;21.60;15.35;;;;;;;;;;5111051;28;20451;-64
2021/12/24 03:19:02;;;;;;;21.30;16.17;;;;;;;;;;5111763;28;20051;-64
2021/12/24 03:21:34;;;;;;;19.45;14.90;;;;;;;;;;5111147;28;20066;-65
2021/12/24 03:26:46;;;;;;;32.78;16.40;;;;;;;;;;5111220;28;20071;-64
2021/12/24 03:29:12;;;;;;;20.00;14.27;;;;;;;;;;5111091;28;20411;-65
2021/12/24 03:31:39;;;;;;;20.95;14.00;;;;;;;;;;5111905;28;20044;-64
2021/12/24 03:34:07;;;;;;;20.10;14.88;;;;;;;;;;5111292;28;20043;-64
2021/12/24 03:36:34;;;;;;;18.52;13.75;;;;;;;;;;5111177;28;20089;-64
2021/12/24 03:39:00;;;;;;;17.20;13.90;;;;;;;;;;5111194;28;20052;-64
2021/12/24 03:41:27;;;;;;;20.45;13.32;;;;;;;;;;5111572;28;20043;-64
2021/12/24 03:43:55;;;;;;;18.92;12.88;;;;;;;;;;5110712;28;20047;-64
2021/12/24 03:46:29;;;;;;;21.80;13.65;;;;;;;;;;5111710;28;20044;-64
2021/12/24 03:48:59;;;;;;;18.83;12.90;;;;;;;;;;5111258;28;20050;-64
2021/12/24 03:51:42;;;;;;;15.65;12.07;;;;;;;;;;5110843;28;20044;-64
2021/12/24 03:56:51;;;;;;;17.35;12.15;;;;;;;;;;5110596;28;20498;-64
2021/12/24 03:59:19;;;;;;;16.90;12.50;;;;;;;;;;5111275;28;20096;-64
2021/12/24 04:01:45;;;;;;;20.45;13.27;;;;;;;;;;5111222;28;20113;-64
2021/12/24 04:04:11;;;;;;;18.35;11.65;;;;;;;;;;5110501;28;20047;-64
2021/12/24 04:06:38;;;;;;;20.17;12.13;;;;;;;;;;5111156;28;20060;-65
2021/12/24 04:09:05;;;;;;;19.65;12.80;;;;;;;;;;5111226;28;20472;-64
2021/12/24 04:11:32;;;;;;;22.60;12.88;;;;;;;;;;5110596;28;20044;-65
2021/12/24 04:13:58;;;;;;;22.05;11.23;;;;;;;;;;5111033;28;20050;-64
2021/12/24 04:16:27;;;;;;;17.67;11.85;;;;;;;;;;5111007;28;20047;-65
2021/12/24 04:19:04;;;;;;;20.05;12.73;;;;;;;;;;5110079;28;20043;-64
2021/12/24 04:26:58;;;;;;;20.33;13.20;;;;;;;;;;5110216;28;20142;-65
2021/12/24 04:29:26;;;;;;;16.98;11.65;;;;;;;;;;5111056;28;20051;-65
2021/12/24 04:32:06;;;;;;;17.27;12.38;;;;;;;;;;5110160;28;20055;-65
2021/12/24 04:34:34;;;;;;;17.67;11.40;;;;;;;;;;5111270;28;20093;-65
2021/12/24 04:37:40;;;;;;;19.25;12.38;;;;;;;;;;5110848;28;20048;-65
2021/12/24 04:50:58;;;;;;;19.25;11.60;;;;;;;;;;5109948;28;20051;-65
2021/12/24 04:51:11;;;;;;;17.65;11.88;;;;;;;;;;5114388;28;20468;-65
2021/12/24 05:02:02;;;;;;;18.08;12.20;;;;;;;;;;5113390;28;20092;-65
2021/12/24 05:04:33;;;;;;;18.48;12.15;;;;;;;;;;5114557;28;20051;-65
2021/12/24 05:07:08;;;;;;;15.57;10.88;;;;;;;;;;5113254;28;20044;-65
2021/12/24 05:09:38;;;;;;;18.48;11.20;;;;;;;;;;5114682;28;20044;-65
2021/12/24 05:12:06;;;;;;;17.95;11.25;;;;;;;;;;5116245;28;20040;-65
2021/12/24 05:14:32;;;;;;;18.90;11.50;;;;;;;;;;5113610;28;20048;-65
2021/12/24 05:17:17;;;;;;;14.50;10.20;;;;;;;;;;5113642;28;20540;-65
2021/12/24 05:22:30;;;;;;;14.45;9.85;;;;;;;;;;5113380;28;20141;-65
2021/12/24 05:24:57;;;;;;;17.75;10.07;;;;;;;;;;5113911;28;20126;-65
2021/12/24 05:27:23;;;;;;;16.63;10.02;;;;;;;;;;5113909;27;20085;-64
2021/12/24 05:29:49;;;;;;;16.27;9.55;;;;;;;;;;5113061;28;20044;-64
2021/12/24 05:32:16;;;;;;;17.35;9.68;;;;;;;;;;5113862;28;20100;-64
2021/12/24 05:34:42;;;;;;;18.70;10.02;;;;;;;;;;5113952;28;20116;-65
2021/12/24 05:37:10;;;;;;;16.58;9.85;;;;;;;;;;5113133;28;20101;-64
2021/12/24 05:39:36;;;;;;;15.50;9.90;;;;;;;;;;5113976;27;20156;-64
2021/12/24 05:42:02;;;;;;;14.93;9.30;;;;;;;;;;5112691;28;20112;-65
2021/12/24 05:44:29;;;;;;;18.15;9.70;;;;;;;;;;5113554;28;20587;-65
2021/12/24 05:46:55;;;;;;;14.68;9.32;;;;;;;;;;5113555;28;20482;-65
2021/12/24 05:49:21;;;;;;;17.35;9.63;;;;;;;;;;5112989;28;20051;-65
2021/12/24 05:51:47;;;;;;;19.25;9.75;;;;;;;;;;5113317;28;20065;-65
2021/12/24 05:54:15;;;;;;;15.57;9.13;;;;;;;;;;5113610;28;20108;-65
2021/12/24 05:56:42;;;;;;;16.23;9.40;;;;;;;;;;5112439;28;20601;-65
2021/12/24 05:59:08;;;;;;;14.65;9.00;;;;;;;;;;5112143;28;20044;-64
2021/12/24 06:01:35;;;;;;;17.63;8.48;;;;;;;;;;5113535;28;20051;-64
2021/12/24 06:04:01;;;;;;;17.85;8.25;;;;;;;;;;5112128;28;20059;-64
2021/12/24 06:06:27;;;;;;;15.93;8.55;;;;;;;;;;5113038;28;20100;-65
2021/12/24 06:08:54;;;;;;;15.25;8.75;;;;;;;;;;5112930;28;20048;-65
2021/12/24 06:11:21;;;;;;;16.35;8.05;;;;;;;;;;5112511;28;20043;-65
2021/12/24 06:13:52;;;;;;;15.77;9.43;;;;;;;;;;5112695;28;20112;-65
2021/12/24 06:16:19;;;;;;;10.50;7.25;;;;;;;;;;5113055;28;20055;-65
2021/12/24 06:18:45;;;;;;;17.70;8.52;;;;;;;;;;5112073;28;20043;-65
2021/12/24 06:21:11;;;;;;;13.32;8.00;;;;;;;;;;5112950;28;20100;-65
2021/12/24 06:23:39;;;;;;;17.30;8.13;;;;;;;;;;5112772;28;20043;-64
2021/12/24 06:26:06;;;;;;;19.55;7.88;;;;;;;;;;5111802;28;20055;-65
2021/12/24 06:28:34;;;;;;;13.82;7.38;;;;;;;;;;5112887;28;20047;-64
2021/12/24 06:31:01;;;;;;;14.40;7.72;;;;;;;;;;5112606;28;20040;-64
2021/12/24 06:33:27;;;;;;;14.68;7.25;;;;;;;;;;5111983;28;20054;-65
2021/12/24 06:35:56;;;;;;;18.15;7.78;;;;;;;;;;5112367;28;20048;-65
2021/12/24 06:38:22;;;;;;;16.90;7.35;;;;;;;;;;5111799;28;20131;-64
2021/12/24 06:40:49;;;;;;;17.95;7.95;;;;;;;;;;5112249;28;20040;-64
2021/12/24 06:43:15;;;;;;;18.27;7.47;;;;;;;;;;5113175;28;20472;-65
2021/12/24 06:45:42;;;;;;;14.70;7.03;;;;;;;;;;5111670;28;20062;-65
2021/12/24 06:48:09;;;;;;;12.45;7.00;;;;;;;;;;5112447;28;20044;-65
2021/12/24 06:50:35;;;;;;;15.32;6.95;;;;;;;;;;5112364;28;20043;-65
2021/12/24 06:53:01;;;;;;;19.60;6.72;;;;;;;;;;5111201;28;20059;-65
2021/12/24 06:55:28;;;;;;;14.57;6.20;;;;;;;;;;5112022;28;20056;-64
2021/12/24 06:57:55;;;;;;;15.38;6.85;;;;;;;;;;5112034;28;20073;-64
2021/12/24 07:00:22;;;;;;;17.92;6.45;;;;;;;;;;5111476;28;20138;-65
2021/12/24 07:02:50;;;;;;;16.02;6.80;;;;;;;;;;5111897;28;20044;-64
2021/12/24 07:05:17;;;;;;;18.38;7.72;;;;;;;;;;5111707;28;20482;-65
2021/12/24 07:07:44;;;;;;;18.35;7.10;;;;;;;;;;5111126;28;20044;-64
2021/12/24 07:10:10;;;;;;;16.13;7.38;;;;;;;;;;5111797;28;20113;-64
2021/12/24 07:12:36;;;;;;;15.32;7.47;;;;;;;;;;5112044;28;20478;-64
2021/12/24 07:15:02;;;;;;;19.25;7.13;;;;;;;;;;5110967;28;20093;-64
2021/12/24 07:17:29;;;;;;;15.43;7.03;;;;;;;;;;5111835;28;20048;-64
2021/12/24 07:19:56;;;;;;;17.27;7.95;;;;;;;;;;5111541;28;20084;-64
2021/12/24 07:22:22;;;;;;;15.82;6.72;;;;;;;;;;5111193;28;20112;-64
2021/12/24 07:24:48;;;;;;;17.08;6.80;;;;;;;;;;5111419;28;20043;-65
2021/12/24 07:27:15;;;;;;;13.82;7.28;;;;;;;;;;5112042;28;20047;-64
2021/12/24 07:29:41;;;;;;;15.88;6.88;;;;;;;;;;5111091;28;20097;-64
2021/12/24 07:32:08;;;;;;;14.50;7.60;;;;;;;;;;5111462;28;20474;-64
2021/12/24 07:34:34;;;;;;;20.00;8.18;;;;;;;;;;5110984;28;20069;-64
2021/12/24 07:37:02;;;;;;;17.23;6.97;;;;;;;;;;5111403;28;20097;-64
2021/12/24 07:39:28;;;;;;;16.55;6.25;;;;;;;;;;5111695;28;20047;-65
2021/12/24 07:41:54;;;;;;;14.55;6.35;;;;;;;;;;5110568;28;20044;-65
2021/12/24 07:44:20;;;;;;;16.65;7.20;;;;;;;;;;5111647;28;20043;-64
2021/12/24 07:46:50;;;;;;;18.35;8.23;;;;;;;;;;5111215;28;20043;-65
2021/12/24 07:49:30;;;;;;;17.77;7.20;;;;;;;;;;5110999;28;20071;-65
2021/12/24 07:52:01;;;;;;;17.00;7.10;;;;;;;;;;5111289;28;20109;-65
2021/12/24 07:54:29;;;;;;;18.60;7.45;;;;;;;;;;5111790;28;20402;-65
2021/12/24 07:56:56;;;;;;;20.50;7.63;;;;;;;;;;5111018;28;20056;-64
2021/12/24 07:59:22;;;;;;;20.33;8.18;;;;;;;;;;5111273;28;20051;-64
2021/12/24 08:01:48;;;;;;;13.95;7.18;;;;;;;;;;5111064;28;20048;-65
2021/12/24 08:04:15;;;;;;;13.20;7.18;;;;;;;;;;5111011;28;20424;-65
2021/12/24 08:06:41;;;;;;;17.70;7.63;;;;;;;;;;5111300;28;20097;-64
2021/12/24 08:09:07;;;;;;;15.93;8.38;;;;;;;;;;5111594;28;20051;-66
2021/12/24 08:11:35;;;;;;;20.65;7.43;;;;;;;;;;5110651;28;20448;-67
2021/12/24 08:14:01;;;;;;;19.63;7.05;;;;;;;;;;5111264;28;20505;-67
2021/12/24 08:16:28;;;;;;;20.52;8.05;;;;;;;;;;5111126;28;20090;-63
2021/12/24 08:18:54;;;;;;;18.10;7.07;;;;;;;;;;5110689;28;20054;-63
2021/12/24 08:21:21;;;;;;;18.38;7.28;;;;;;;;;;5111515;28;20051;-63
2021/12/24 08:23:48;;;;;;;18.77;7.20;;;;;;;;;;5113495;28;20398;-63
2021/12/24 08:26:15;;;;;;;20.38;7.32;;;;;;;;;;5115335;28;20067;-65
2021/12/24 08:28:42;;;;;;;18.23;7.20;;;;;;;;;;5115270;28;20047;-65
2021/12/24 08:31:09;;;;;;;15.60;7.25;;;;;;;;;;5114274;28;20334;-63
2021/12/24 08:33:35;;;;;;;18.40;6.75;;;;;;;;;;5115281;28;20444;-62
2021/12/24 08:36:02;;;;;;;19.77;7.22;;;;;;;;;;5114898;28;20397;-62
2021/12/24 08:38:28;;;;;;;15.98;7.15;;;;;;;;;;5114502;28;20088;-63
2021/12/24 08:40:54;;;;;;;14.90;6.38;;;;;;;;;;5114804;28;20039;-61
2021/12/24 08:43:20;;;;;;;17.50;7.40;;;;;;;;;;5114963;28;20124;-63
2021/12/24 08:45:48;;;;;;;15.18;6.63;;;;;;;;;;5113818;28;20126;-62
2021/12/24 08:48:14;;;;;;;15.48;7.10;;;;;;;;;;5114748;28;20093;-63
2021/12/24 08:50:40;;;;;;;16.90;6.90;;;;;;;;;;5114876;28;20547;-62
2021/12/24 08:53:07;;;;;;;20.85;7.90;;;;;;;;;;5113880;28;20044;-63
2021/12/24 08:55:33;;;;;;;14.18;6.45;;;;;;;;;;5114942;28;20047;-63
2021/12/24 08:57:59;;;;;;;16.45;7.68;;;;;;;;;;5114202;28;20069;-63
2021/12/24 09:00:26;;;;;;;16.08;6.95;;;;;;;;;;5113925;28;20100;-63
2021/12/24 09:02:53;;;;;;;18.42;7.93;;;;;;;;;;5114400;28;20511;-63
2021/12/24 09:05:19;;;;;;;13.40;6.53;;;;;;;;;;5114876;28;20101;-63
2021/12/24 09:07:46;;;;;;;17.13;7.13;;;;;;;;;;5113493;28;20043;-63
2021/12/24 09:10:12;;;;;;;12.30;5.90;;;;;;;;;;5115884;28;20047;-62
2021/12/24 09:12:39;;;;;;;16.73;6.70;;;;;;;;;;5114303;28;20054;-62
2021/12/24 09:15:06;;;;;;;15.05;6.45;;;;;;;;;;5113311;28;20043;-63
2021/12/24 09:17:32;;;;;;;11.68;6.30;;;;;;;;;;5114246;28;20058;-63
2021/12/24 09:20:00;;;;;;;10.23;6.25;;;;;;;;;;5114079;28;20048;-63
2021/12/24 09:22:30;;;;;;;13.18;7.00;;;;;;;;;;5113838;28;20092;-63
2021/12/24 09:24:57;;;;;;;18.60;7.07;;;;;;;;;;5113929;28;20040;-63
2021/12/24 09:27:24;;;;;;;13.48;7.03;;;;;;;;;;5113512;28;20109;-63
2021/12/24 09:29:50;;;;;;;14.25;6.50;;;;;;;;;;5114027;27;20100;-63
2021/12/24 09:32:16;;;;;;;11.55;7.30;;;;;;;;;;5114078;28;20047;-62
2021/12/24 09:34:43;;;;;;;12.20;6.47;;;;;;;;;;5111950;28;20077;-63
2021/12/24 09:37:10;;;;;;;16.13;7.30;;;;;;;;;;5113446;28;20039;-63
2021/12/24 09:39:37;;;;;;;14.88;7.22;;;;;;;;;;5113941;28;20047;-63
2021/12/24 09:42:03;;;;;;;14.68;8.45;;;;;;;;;;5112688;28;20047;-63
2021/12/24 09:44:30;;;;;;;14.98;7.70;;;;;;;;;;5114068;28;20039;-63
2021/12/24 09:46:56;;;;;;;19.40;8.77;;;;;;;;;;5113625;28;20452;-64
2021/12/24 09:49:24;;;;;;;17.90;8.32;;;;;;;;;;5112817;28;20097;-64
2021/12/24 09:51:51;;;;;;;14.45;8.27;;;;;;;;;;5113529;28;20436;-64
2021/12/24 09:54:20;;;;;;;19.35;8.43;;;;;;;;;;5113484;28;20055;-64
2021/12/24 09:56:46;;;;;;;18.50;8.18;;;;;;;;;;5112602;28;20051;-65
2021/12/24 09:59:13;;;;;;;15.45;8.20;;;;;;;;;;5113388;28;20490;-64
2021/12/24 10:01:42;;;;;;;19.95;8.63;;;;;;;;;;5113771;28;20043;-65
2021/12/24 10:04:09;;;;;;;21.38;9.10;;;;;;;;;;5112906;28;20048;-63
2021/12/24 10:06:36;;;;;;;15.50;8.65;;;;;;;;;;5113420;28;20052;-62
2021/12/24 10:09:05;;;;;;;19.85;8.68;;;;;;;;;;5113337;28;20055;-63
2021/12/24 10:11:46;;;;;;;15.32;7.72;;;;;;;;;;5112915;28;20048;-64
2021/12/24 10:14:12;;;;;;;19.15;8.02;;;;;;;;;;5113444;28;20048;-64
2021/12/24 10:16:41;;;;;;;16.05;8.15;;;;;;;;;;5112532;28;20128;-63
2021/12/24 10:19:08;;;;;;;12.65;8.18;;;;;;;;;;5113047;28;20044;-65
2021/12/24 10:21:35;;;;;;;14.15;8.30;;;;;;;;;;5113143;28;20036;-63
2021/12/24 10:24:03;;;;;;;20.63;9.20;;;;;;;;;;5112452;28;20080;-62
2021/12/24 10:26:30;;;;;;;14.70;8.55;;;;;;;;;;5113150;28;20474;-64
2021/12/24 10:28:59;;;;;;;20.08;8.77;;;;;;;;;;5112678;28;20085;-63
2021/12/24 10:31:27;;;;;;;19.42;8.98;;;;;;;;;;5112139;28;20443;-64
2021/12/24 10:34:10;;;;;;;18.30;9.15;;;;;;;;;;5112541;28;20065;-62
2021/12/24 10:36:51;;;;;;;20.98;9.00;;;;;;;;;;5112965;28;20052;-65
2021/12/24 10:39:18;;;;;;;17.27;8.63;;;;;;;;;;5112153;28;20097;-64
2021/12/24 10:41:46;;;;;;;17.55;8.23;;;;;;;;;;5112682;28;20040;-61
2021/12/24 10:44:16;;;;;;;18.30;8.48;;;;;;;;;;5112780;28;20053;-64
2021/12/24 10:46:56;;;;;;;14.48;8.48;;;;;;;;;;5110878;28;20093;-62
2021/12/24 10:49:35;;;;;;;19.45;8.50;;;;;;;;;;5112970;28;20394;-63
2021/12/24 10:52:13;;;;;;;14.30;8.07;;;;;;;;;;5111902;28;20554;-63
2021/12/24 10:54:50;;;;;;;17.10;7.10;;;;;;;;;;5112039;28;20047;-63
2021/12/24 10:57:17;;;;;;;13.57;7.50;;;;;;;;;;5112572;28;20073;-62
2021/12/24 10:59:48;;;;;;;16.77;8.15;;;;;;;;;;5111191;28;20073;-63
2021/12/24 11:02:14;;;;;;;15.93;7.40;;;;;;;;;;5112638;28;20071;-62
2021/12/24 11:04:42;;;;;;;15.18;8.15;;;;;;;;;;5112431;28;20191;-62
2021/12/24 11:07:30;;;;;;;21.73;5.70;;;;;;;;;;5111471;28;20410;-62
2021/12/24 11:10:12;;;;;;;12.55;6.88;;;;;;;;;;5112097;28;20036;-62
2021/12/24 11:12:39;;;;;;;16.60;7.15;;;;;;;;;;5111629;28;20448;-62
2021/12/24 11:15:18;;;;;;;19.77;7.72;;;;;;;;;;5111791;28;20043;-62
2021/12/24 11:17:44;;;;;;;18.67;7.55;;;;;;;;;;5111606;28;20047;-62
2021/12/24 11:20:11;;;;;;;15.05;7.15;;;;;;;;;;5111540;28;20043;-63
2021/12/24 11:22:48;;;;;;;18.55;7.45;;;;;;;;;;5112182;28;20043;-63
2021/12/24 11:25:15;;;;;;;15.10;6.18;;;;;;;;;;5111978;28;20035;-62
2021/12/24 11:27:41;;;;;;;14.75;6.60;;;;;;;;;;5111127;28;20055;-63
2021/12/24 11:30:08;;;;;;;14.02;7.32;;;;;;;;;;5111968;28;20052;-63
2021/12/24 11:32:36;;;;;;;16.85;7.57;;;;;;;;;;5111737;28;20495;-63
2021/12/24 11:35:03;;;;;;;20.95;8.25;;;;;;;;;;5110965;28;20112;-63
2021/12/24 11:37:30;;;;;;;16.20;8.13;;;;;;;;;;5111886;28;20055;-63
2021/12/24 11:39:58;;;;;;;21.38;7.95;;;;;;;;;;5098005;28;20495;-64
2021/12/24 11:42:25;;;;;;;17.42;8.05;;;;;;;;;;5090622;28;20479;-63
2021/12/24 11:44:52;;;;;;;24.88;8.38;;;;;;;;;;5091396;28;20044;-64
2021/12/24 11:47:18;;;;;;;13.85;7.13;;;;;;;;;;5091392;28;20468;-64
2021/12/24 11:49:45;;;;;;;18.27;7.85;;;;;;;;;;5090742;28;20040;-63
2021/12/24 11:52:12;;;;;;;18.13;8.90;;;;;;;;;;5091507;28;20044;-63
2021/12/24 11:54:38;;;;;;;16.20;7.68;;;;;;;;;;5094043;28;20044;-63
2021/12/24 11:57:15;;;;;;;19.25;8.65;;;;;;;;;;5110632;28;20048;-63
2021/12/24 11:59:41;;;;;;;16.27;7.55;;;;;;;;;;5116372;28;20103;-64
2021/12/24 12:02:08;;;;;;;17.42;7.93;;;;;;;;;;5115256;28;20808;-63
2021/12/24 12:04:35;;;;;;;17.80;8.65;;;;;;;;;;5116001;28;20051;-63
2021/12/24 12:07:15;;;;;;;16.17;7.80;;;;;;;;;;5115165;28;20055;-64
2021/12/24 12:09:42;;;;;;;21.55;9.60;;;;;;;;;;5114996;28;20494;-63
2021/12/24 12:12:10;;;;;;;20.08;8.05;;;;;;;;;;5115800;28;20048;-64
2021/12/24 12:14:37;;;;;;;19.90;8.00;;;;;;;;;;5115662;28;20575;-64
2021/12/24 12:17:06;;;;;;;18.58;8.02;;;;;;;;;;5114259;28;20494;-64
2021/12/24 12:19:43;;;;;;;23.33;8.80;;;;;;;;;;5115871;28;20135;-65
2021/12/24 12:22:16;;;;;;;18.83;8.52;;;;;;;;;;5115425;28;20044;-64
2021/12/24 12:27:30;;;;;;;14.98;7.88;;;;;;;;;;5115472;28;20048;-63
2021/12/24 12:29:56;;;;;;;23.27;7.90;;;;;;;;;;5114637;28;20042;-65
2021/12/24 12:32:42;;;;;;;18.35;7.28;;;;;;;;;;5115337;28;20048;-64
2021/12/24 12:35:08;;;;;;;18.57;7.20;;;;;;;;;;5115246;28;20447;-63
2021/12/24 12:37:42;;;;;;;18.58;7.43;;;;;;;;;;5114415;28;20122;-63
2021/12/24 12:40:23;;;;;;;16.40;7.38;;;;;;;;;;5115369;28;20048;-64
2021/12/24 12:43:08;;;;;;;20.02;8.05;;;;;;;;;;5114587;28;20051;-64
2021/12/24 12:45:59;;;;;;;15.13;7.30;;;;;;;;;;5114529;28;20043;-63
2021/12/24 12:48:41;;;;;;;13.90;7.13;;;;;;;;;;5110338;28;20054;-64
2021/12/24 12:51:07;;;;;;;14.48;7.18;;;;;;;;;;5114288;28;20054;-63
2021/12/24 12:53:37;;;;;;;15.88;6.90;;;;;;;;;;5114554;28;20047;-64
2021/12/24 12:56:11;;;;;;;15.82;7.35;;;;;;;;;;5114630;28;20047;-68
2021/12/24 12:58:38;;;;;;;15.85;7.30;;;;;;;;;;5113782;28;20058;-64
2021/12/24 13:01:05;;;;;;;14.35;6.50;;;;;;;;;;5114487;27;20531;-63
2021/12/24 13:03:31;;;;;;;13.18;7.13;;;;;;;;;;5114755;28;20097;-64
2021/12/24 13:06:02;;;;;;;11.68;6.50;;;;;;;;;;5113460;28;20052;-63
2021/12/24 13:08:30;;;;;;;14.88;7.88;;;;;;;;;;5114343;28;20055;-63
2021/12/24 13:10:57;;;;;;;14.68;7.45;;;;;;;;;;5114458;28;20142;-63
2021/12/24 13:13:24;;;;;;;12.60;7.78;;;;;;;;;;5113902;28;20387;-63
2021/12/24 13:15:51;;;;;;;14.73;7.60;;;;;;;;;;5114239;28;20058;-62
2021/12/24 13:18:25;;;;;;;16.45;7.05;;;;;;;;;;5114723;28;20043;-62
2021/12/24 13:23:32;;;;;;;15.68;7.50;;;;;;;;;;5114139;28;20454;-62
2021/12/24 13:26:07;;;;;;;15.18;8.30;;;;;;;;;;5113899;28;20482;-62
2021/12/24 13:28:33;;;;;;;18.73;7.90;;;;;;;;;;5113535;28;20039;-63
2021/12/24 13:31:12;;;;;;;19.55;8.20;;;;;;;;;;5113633;28;20036;-63
2021/12/24 13:33:38;;;;;;;14.75;8.10;;;;;;;;;;5113663;28;20101;-63
2021/12/24 13:36:05;;;;;;;15.55;8.15;;;;;;;;;;5113918;28;20085;-63
2021/12/24 13:38:31;;;;;;;14.20;7.97;;;;;;;;;;5114160;28;20047;-63
2021/12/24 13:40:57;;;;;;;15.35;8.70;;;;;;;;;;5112853;28;20048;-62
2021/12/24 13:43:24;;;;;;;12.98;8.40;;;;;;;;;;5113911;28;20055;-63
2021/12/24 13:45:52;;;;;;;16.02;7.50;;;;;;;;;;5114204;28;20047;-61
2021/12/24 13:48:25;;;;;;;14.05;8.57;;;;;;;;;;5112858;28;20444;-62
2021/12/24 13:56:18;;;;;;;11.52;8.20;;;;;;;;;;5112909;28;20047;-62
2021/12/24 13:58:49;;;;;;;11.43;8.30;;;;;;;;;;5113238;28;20048;-64
2021/12/24 14:01:15;;;;;;;12.55;8.23;;;;;;;;;;5113614;28;20044;-65
2021/12/24 14:03:43;;;;;;;13.77;8.07;;;;;;;;;;5112677;28;20051;-63
2021/12/24 14:06:11;;;;;;;10.90;7.93;;;;;;;;;;5113364;28;20052;-63
2021/12/24 14:08:38;;;;;;;11.60;7.60;;;;;;;;;;5112636;28;20100;-65
2021/12/24 14:11:06;;;;;;;12.18;8.07;;;;;;;;;;5113307;28;20122;-66
2021/12/24 14:13:36;;;;;;;11.27;8.20;;;;;;;;;;5113506;28;20555;-65
2021/12/24 14:16:11;;;;;;;12.82;7.15;;;;;;;;;;5112170;28;20059;-64
2021/12/24 14:18:47;;;;;;;13.00;7.63;;;;;;;;;;5113270;28;20051;-63
2021/12/24 14:21:47;;;;;;;12.45;7.75;;;;;;;;;;5111986;28;20056;-63
2021/12/24 14:24:15;;;;;;;11.88;8.35;;;;;;;;;;5111181;28;20083;-64
2021/12/24 14:26:42;;;;;;;12.27;8.55;;;;;;;;;;5113111;28;20050;-64
2021/12/24 14:29:09;;;;;;;11.23;8.68;;;;;;;;;;5113080;28;20059;-63
2021/12/24 14:31:48;;;;;;;10.70;8.73;;;;;;;;;;5112100;28;20127;-63
2021/12/24 14:34:28;;;;;;;12.05;8.35;;;;;;;;;;5113052;28;20486;-63
2021/12/24 14:36:59;;;;;;;11.93;8.35;;;;;;;;;;5111455;28;20085;-62
2021/12/24 14:39:25;;;;;;;12.27;8.23;;;;;;;;;;5112683;28;20048;-63
2021/12/24 14:42:06;;;;;;;10.68;7.75;;;;;;;;;;5112158;28;20089;-62
2021/12/24 14:44:33;;;;;;;11.20;8.20;;;;;;;;;;5109596;28;20114;-62
2021/12/24 14:46:59;;;;;;;11.68;8.75;;;;;;;;;;5112490;28;20047;-62
2021/12/24 14:49:30;;;;;;;13.38;8.38;;;;;;;;;;5112842;28;20047;-63
2021/12/24 14:52:11;;;;;;;11.35;8.32;;;;;;;;;;5111367;28;20044;-62
2021/12/24 14:54:59;;;;;;;11.70;8.18;;;;;;;;;;5112508;28;20626;-62
2021/12/24 14:57:25;;;;;;;11.18;8.32;;;;;;;;;;5112311;28;20096;-63
2021/12/24 14:59:51;;;;;;;11.20;8.18;;;;;;;;;;5111268;28;20051;-62
2021/12/24 15:02:18;;;;;;;11.23;7.80;;;;;;;;;;5112184;28;20039;-62
2021/12/24 15:04:44;;;;;;;11.82;7.75;;;;;;;;;;5111252;28;20043;-62
2021/12/24 15:07:10;;;;;;;14.07;8.13;;;;;;;;;;5112118;28;20097;-62
2021/12/24 15:09:39;;;;;;;10.45;6.95;;;;;;;;;;5112338;28;20105;-64
2021/12/24 15:12:20;;;;;;;10.80;7.53;;;;;;;;;;5111038;28;20042;-65
2021/12/24 15:14:47;;;;;;;7.75;6.13;;;;;;;;;;5111847;28;20142;-66
2021/12/24 15:17:13;;;;;;;7.30;5.40;;;;;;;;;;5111675;28;20093;-65
2021/12/24 15:19:39;;;;;;;7.63;5.80;;;;;;;;;;5111178;28;20112;-64
2021/12/24 15:22:06;;;;;;;10.40;5.97;;;;;;;;;;5111486;28;20475;-64
2021/12/24 15:24:32;;;;;;;7.28;5.80;;;;;;;;;;5112024;28;20073;-63
2021/12/24 15:26:59;;;;;;;7.22;5.53;;;;;;;;;;5111506;28;20058;-63
2021/12/24 15:29:26;;;;;;;9.07;6.15;;;;;;;;;;5112237;28;20047;-63
2021/12/24 15:31:54;;;;;;;6.82;5.88;;;;;;;;;;5111264;28;20047;-63
2021/12/24 15:34:20;;;;;;;7.72;6.03;;;;;;;;;;5111217;28;20050;-63
2021/12/24 15:36:47;;;;;;;9.00;6.05;;;;;;;;;;5111338;28;20538;-63
2021/12/24 15:39:13;;;;;;;6.40;5.07;;;;;;;;;;5111548;28;20439;-63
2021/12/24 15:41:45;;;;;;;7.43;5.45;;;;;;;;;;5110870;28;20043;-64
2021/12/24 15:44:13;;;;;;;7.32;5.20;;;;;;;;;;5111725;28;20142;-62
2021/12/24 15:46:40;;;;;;;6.70;5.15;;;;;;;;;;5111398;28;20048;-62
2021/12/24 15:49:06;;;;;;;5.57;4.65;;;;;;;;;;5110649;28;20134;-62
2021/12/24 15:51:35;;;;;;;5.35;4.72;;;;;;;;;;5111740;28;20101;-63
2021/12/24 15:54:01;;;;;;;5.55;4.18;;;;;;;;;;5110475;28;20051;-63
2021/12/24 15:56:27;;;;;;;5.75;4.95;;;;;;;;;;5111917;28;20100;-63